Darstellungsparameter: Aktuell verwendete Einstellungen:
Skalierung der Graphiken ... ?
xyx+y,   Skalierungsfaktor:      Skalierung: Modus: x, Faktor: 1
Darstellungszeitraum ... ?
Vom - - bis: - -   Zeitraum: 21.06.2010 - 27.06.2010
Min/Max/Avg-Anzeige ... ?
Zeige MMA aktuell
Zeige MMA Monat
Zeige MMA alles
Zeige --A aktuell
Zeige --A Monat
Zeige --A alles
Keine MMA-Anzeige
MMA:
Keine MMA-Graphiken
MMA-Basis: 21.06.2010 - 27.06.2010
Quicknavigation für Darstellung... ?
Tage:      1T, 2T, 3T, 5T -1T -2T -3T -5T +1T +2T +3T +5T
Wochen: 1W, 2W, 3W -1W -2W -3W +1W +2W +3W
Monate: 1M, 3M, 6M -1M -3M -6M +1M +3M +6M
Jahre:    1J, 3J, 5J, 10J -1J -3J -5J -10J +1J +3J +5J +10J
Nutze für die Darstellung ... ?
Originaldaten oder Mittelwerte auf ...
Stundenbasis Tagesbasis Wochenbasis
Monatsbasis Jahresbasis      Datenbasis: Original-Daten
Darstellen als:
Statistik (Auto) Statistik J:M      Darstellung:
Zur Graphik,    zurück zur Übersicht aller Sensoren.
 
Tabellarische Datenbersicht: ?
 
Sensor: Nr:Datum:Temp:Feuchte:Taupunkt:
Aussen-T/F 1 21-06-2010 00:05:02 11.9 C 67 % 5.98 C
2 21-06-2010 00:17:02 11.8 C 67 % 5.88 C
3 21-06-2010 00:29:02 11.4 C 68 % 5.71 C
4 21-06-2010 00:41:02 11.2 C 70 % 5.94 C
5 21-06-2010 00:53:03 11.2 C 70 % 5.94 C
6 21-06-2010 01:05:03 11.1 C 69 % 5.64 C
7 21-06-2010 01:17:03 11.1 C 70 % 5.84 C
8 21-06-2010 01:29:03 11 C 70 % 5.75 C
9 21-06-2010 01:41:03 10.8 C 71 % 5.76 C
10 21-06-2010 01:53:03 10.7 C 72 % 5.87 C
11 21-06-2010 02:05:03 10.5 C 72 % 5.67 C
12 21-06-2010 02:17:03 10.4 C 73 % 5.78 C
13 21-06-2010 02:29:03 10.1 C 73 % 5.49 C
14 21-06-2010 02:41:03 10.2 C 74 % 5.78 C
15 21-06-2010 02:53:03 10.2 C 73 % 5.58 C
16 21-06-2010 03:05:03 10 C 73 % 5.39 C
17 21-06-2010 03:17:03 9.8 C 74 % 5.39 C
18 21-06-2010 03:29:03 9.6 C 74 % 5.2 C
19 21-06-2010 03:41:03 9.5 C 75 % 5.3 C
20 21-06-2010 03:53:03 9.3 C 75 % 5.1 C
21 21-06-2010 04:05:03 9.1 C 76 % 5.1 C
22 21-06-2010 04:17:03 9.1 C 77 % 5.29 C
23 21-06-2010 04:29:03 9.2 C 78 % 5.57 C
24 21-06-2010 04:41:03 9.4 C 77 % 5.58 C
25 21-06-2010 04:53:03 9 C 77 % 5.19 C
Sensor: Nr:Datum:Temp:Feuchte:Taupunkt:
Aussen-T/F 26 21-06-2010 05:05:04 8.8 C 79 % 5.36 C
27 21-06-2010 05:17:04 8.7 C 79 % 5.27 C
28 21-06-2010 05:29:04 8.7 C 80 % 5.45 C
29 21-06-2010 05:41:04 8.6 C 80 % 5.35 C
30 21-06-2010 05:53:04 8.6 C 81 % 5.53 C
31 21-06-2010 06:05:04 8.5 C 82 % 5.61 C
32 21-06-2010 06:17:04 8.5 C 82 % 5.61 C
33 21-06-2010 06:29:04 8.6 C 83 % 5.88 C
34 21-06-2010 06:41:04 8.6 C 84 % 6.05 C
35 21-06-2010 06:53:02 8.9 C 84 % 6.35 C
36 21-06-2010 07:05:03 9.1 C 83 % 6.37 C
37 21-06-2010 07:17:03 9.5 C 82 % 6.59 C
38 21-06-2010 07:29:03 9.8 C 79 % 6.34 C
39 21-06-2010 07:41:03 10.6 C 74 % 6.17 C
40 21-06-2010 07:53:02 11.5 C 70 % 6.23 C
41 21-06-2010 08:05:02 12.1 C 67 % 6.17 C
42 21-06-2010 08:17:02 12.3 C 64 % 5.69 C
43 21-06-2010 08:29:02 12.4 C 62 % 5.33 C
44 21-06-2010 08:41:02 12.7 C 62 % 5.62 C
45 21-06-2010 08:53:02 13.2 C 59 % 5.37 C
46 21-06-2010 09:05:01 13.4 C 57 % 5.07 C
47 21-06-2010 09:17:02 13.4 C 53 % 4.03 C
48 21-06-2010 09:29:03 13.7 C 54 % 4.57 C
49 21-06-2010 09:41:01 14.2 C 48 % 3.36 C
50 21-06-2010 09:53:02 14 C 45 % 2.27 C
Sensor: Nr:Datum:Temp:Feuchte:Taupunkt:
Aussen-T/F 51 21-06-2010 10:05:01 13.9 C 45 % 2.18 C
52 21-06-2010 10:17:02 13.9 C 47 % 2.79 C
53 21-06-2010 10:29:02 13.5 C 52 % 3.85 C
54 21-06-2010 10:41:01 13.5 C 51 % 3.57 C
55 21-06-2010 10:53:02 14 C 46 % 2.58 C
56 21-06-2010 11:05:02 14.7 C 45 % 2.91 C
57 21-06-2010 11:17:02 14.7 C 41 % 1.6 C
58 21-06-2010 11:29:02 14.2 C 42 % 1.49 C
59 21-06-2010 11:41:02 14.4 C 44 % 2.32 C
60 21-06-2010 11:53:02 15.4 C 42 % 2.57 C
61 21-06-2010 12:05:01 16.3 C 38 % 1.97 C
62 21-06-2010 12:17:02 16.5 C 38 % 2.15 C
63 21-06-2010 12:29:02 16 C 38 % 1.71 C
64 21-06-2010 12:41:02 14.8 C 41 % 1.69 C
65 21-06-2010 12:53:01 15 C 42 % 2.21 C
66 21-06-2010 13:05:02 14.7 C 42 % 1.94 C
67 21-06-2010 13:17:01 15.2 C 40 % 1.71 C
68 21-06-2010 13:29:01 16 C 37 % 1.33 C
69 21-06-2010 13:41:02 18 C 33 % 1.51 C
70 21-06-2010 13:53:02 19.6 C 29 % 1.1 C
71 21-06-2010 14:05:02 19.3 C 29 % 0.84 C
72 21-06-2010 14:17:01 18.2 C 30 % 0.36 C
73 21-06-2010 14:29:01 18.7 C 28 % -0.16 C
74 21-06-2010 14:41:02 18.9 C 30 % 0.97 C
75 21-06-2010 14:53:02 18 C 30 % 0.19 C
Sensor: Nr:Datum:Temp:Feuchte:Taupunkt:
Aussen-T/F 76 21-06-2010 15:05:02 17.7 C 29 % -0.54 C
77 21-06-2010 15:17:02 18.4 C 31 % 0.99 C
78 21-06-2010 15:29:02 20 C 26 % -0.06 C
79 21-06-2010 15:41:02 18.7 C 30 % 0.79 C
80 21-06-2010 15:53:02 18.5 C 27 % -0.83 C
81 21-06-2010 16:05:02 19 C 28 % 0.1 C
82 21-06-2010 16:17:02 20 C 27 % 0.45 C
83 21-06-2010 16:29:02 21.2 C 25 % 0.41 C
84 21-06-2010 16:41:02 21 C 23 % -0.9 C
85 21-06-2010 16:53:02 22.6 C 22 % -0.17 C
86 21-06-2010 17:05:02 21 C 22 % -1.5 C
87 21-06-2010 17:17:03 20.6 C 25 % -0.09 C
88 21-06-2010 17:29:03 19.3 C 28 % 0.36 C
89 21-06-2010 17:41:02 18.7 C 30 % 0.79 C
90 21-06-2010 17:53:02 18.3 C 32 % 1.34 C
91 21-06-2010 18:05:02 18.4 C 32 % 1.43 C
92 21-06-2010 18:17:02 18.2 C 31 % 0.81 C
93 21-06-2010 18:29:02 18.4 C 32 % 1.43 C
94 21-06-2010 18:41:02 18.2 C 31 % 0.81 C
95 21-06-2010 18:53:02 18.4 C 32 % 1.43 C
96 21-06-2010 19:05:02 18.2 C 32 % 1.25 C
97 21-06-2010 19:17:02 17.6 C 34 % 1.57 C
98 21-06-2010 19:29:03 17.4 C 35 % 1.8 C
99 21-06-2010 19:41:02 17.3 C 36 % 2.1 C
100 21-06-2010 19:53:02 17.2 C 35 % 1.62 C
Sensor: Nr:Datum:Temp:Feuchte:Taupunkt:
Aussen-T/F 101 21-06-2010 20:05:01 17.2 C 40 % 3.5 C
102 21-06-2010 20:17:02 17.2 C 39 % 3.14 C
103 21-06-2010 20:29:02 16.9 C 44 % 4.58 C
104 21-06-2010 20:41:02 16.6 C 45 % 4.63 C
105 21-06-2010 20:53:01 16.2 C 47 % 4.89 C
106 21-06-2010 21:05:01 16 C 47 % 4.71 C
107 21-06-2010 21:17:02 15.6 C 47 % 4.34 C
108 21-06-2010 21:29:02 15.2 C 47 % 3.98 C
109 21-06-2010 21:41:01 14.9 C 49 % 4.29 C
110 21-06-2010 21:53:02 14.5 C 48 % 3.63 C
111 21-06-2010 22:05:02 14.2 C 50 % 3.94 C
112 21-06-2010 22:18:03 14 C 51 % 4.04 C
113 21-06-2010 22:30:03 13.7 C 52 % 4.03 C
114 21-06-2010 22:42:04 13.4 C 55 % 4.55 C
115 21-06-2010 22:54:04 13.4 C 54 % 4.29 C
116 21-06-2010 23:06:04 13.5 C 56 % 4.91 C
117 21-06-2010 23:18:04 13.4 C 56 % 4.81 C
118 21-06-2010 23:30:04 13.4 C 56 % 4.81 C
119 21-06-2010 23:42:04 13.2 C 56 % 4.63 C
120 21-06-2010 23:54:04 13.1 C 56 % 4.53 C
121 22-06-2010 00:06:04 12.8 C 58 % 4.75 C
122 22-06-2010 00:18:04 12.5 C 59 % 4.72 C
123 22-06-2010 00:30:04 12.2 C 61 % 4.91 C
124 22-06-2010 00:42:04 12.1 C 62 % 5.05 C
125 22-06-2010 00:54:04 12.1 C 64 % 5.51 C
Sensor: Nr:Datum:Temp:Feuchte:Taupunkt:
Aussen-T/F 126 22-06-2010 01:06:04 12.2 C 65 % 5.82 C
127 22-06-2010 01:18:04 12.2 C 65 % 5.82 C
128 22-06-2010 01:30:05 12.4 C 64 % 5.79 C
129 22-06-2010 01:42:05 12.2 C 65 % 5.82 C
130 22-06-2010 01:54:05 12.2 C 65 % 5.82 C
131 22-06-2010 02:06:05 12.1 C 65 % 5.73 C
132 22-06-2010 02:18:05 12.2 C 65 % 5.82 C
133 22-06-2010 02:30:05 12 C 66 % 5.85 C
134 22-06-2010 02:42:05 11.9 C 67 % 5.98 C
135 22-06-2010 02:54:05 11.9 C 68 % 6.19 C
136 22-06-2010 03:06:05 11.9 C 69 % 6.4 C
137 22-06-2010 03:18:05 11.8 C 69 % 6.31 C
138 22-06-2010 03:30:05 11.7 C 69 % 6.21 C
139 22-06-2010 03:42:05 11.8 C 69 % 6.31 C
140 22-06-2010 03:54:05 11.9 C 70 % 6.61 C
141 22-06-2010 04:06:05 11.5 C 71 % 6.43 C
142 22-06-2010 04:18:05 11.4 C 71 % 6.34 C
143 22-06-2010 04:30:05 11.5 C 72 % 6.63 C
144 22-06-2010 04:42:05 11.5 C 72 % 6.63 C
145 22-06-2010 04:54:05 11.5 C 72 % 6.63 C
146 22-06-2010 05:06:05 11.5 C 73 % 6.84 C
147 22-06-2010 05:18:05 11.4 C 73 % 6.74 C
148 22-06-2010 05:30:05 11.4 C 73 % 6.74 C
149 22-06-2010 05:42:05 11.5 C 73 % 6.84 C
150 22-06-2010 05:54:05 11.4 C 72 % 6.54 C
Sensor: Nr:Datum:Temp:Feuchte:Taupunkt:
Aussen-T/F 151 22-06-2010 06:06:06 11.5 C 73 % 6.84 C
152 22-06-2010 06:18:06 11.5 C 73 % 6.84 C
153 22-06-2010 06:30:06 11.6 C 74 % 7.13 C
154 22-06-2010 06:42:03 11.6 C 74 % 7.13 C
155 22-06-2010 06:54:02 11.7 C 73 % 7.03 C
156 22-06-2010 07:06:02 11.9 C 73 % 7.22 C
157 22-06-2010 07:18:02 12 C 72 % 7.12 C
158 22-06-2010 07:30:02 12.1 C 71 % 7.01 C
159 22-06-2010 07:42:02 12.4 C 70 % 7.09 C
160 22-06-2010 07:54:01 12.8 C 69 % 7.26 C
161 22-06-2010 08:06:02 13.1 C 67 % 7.12 C
162 22-06-2010 08:18:02 13 C 63 % 6.13 C
163 22-06-2010 08:30:02 12.9 C 66 % 6.71 C
164 22-06-2010 08:42:02 12.9 C 68 % 7.14 C
165 22-06-2010 08:54:02 13.1 C 66 % 6.9 C
166 22-06-2010 09:06:01 13.5 C 64 % 6.83 C
167 22-06-2010 09:18:02 14.2 C 61 % 6.8 C
168 22-06-2010 09:30:03 15.1 C 59 % 7.16 C
169 22-06-2010 09:42:01 15.8 C 55 % 6.79 C
170 22-06-2010 09:54:02 16.4 C 48 % 5.37 C
171 22-06-2010 10:06:01 17.3 C 42 % 4.28 C
172 22-06-2010 10:18:01 17.9 C 40 % 4.12 C
173 22-06-2010 10:30:01 18.7 C 41 % 5.19 C
174 22-06-2010 10:42:02 19.5 C 39 % 5.19 C
175 22-06-2010 10:54:02 20.2 C 37 % 5.06 C
Sensor: Nr:Datum:Temp:Feuchte:Taupunkt:
Aussen-T/F 176 22-06-2010 11:06:01 20.7 C 33 % 3.87 C
177 22-06-2010 11:18:02 20.1 C 35 % 4.18 C
178 22-06-2010 11:30:02 20.4 C 33 % 3.6 C
179 22-06-2010 11:42:02 20.4 C 32 % 3.17 C
180 22-06-2010 11:54:02 19.6 C 33 % 2.91 C
181 22-06-2010 12:06:03 21.4 C 32 % 4.04 C
182 22-06-2010 12:18:02 23.3 C 25 % 2.19 C
183 22-06-2010 12:30:02 20.7 C 30 % 2.52 C
184 22-06-2010 12:42:02 19.9 C 32 % 2.73 C
185 22-06-2010 12:54:01 20.1 C 30 % 2 C
186 22-06-2010 13:06:02 22.5 C 25 % 1.51 C
187 22-06-2010 13:18:01 20.4 C 30 % 2.26 C
188 22-06-2010 13:30:01 20.7 C 30 % 2.52 C
189 22-06-2010 13:42:01 22.1 C 28 % 2.76 C
190 22-06-2010 13:54:01 22.7 C 26 % 2.23 C
191 22-06-2010 14:06:02 23 C 24 % 1.37 C
192 22-06-2010 14:18:01 23.1 C 26 % 2.57 C
193 22-06-2010 14:30:01 23.2 C 26 % 2.65 C
194 22-06-2010 14:42:01 23.3 C 25 % 2.19 C
195 22-06-2010 14:54:01 23.9 C 23 % 1.53 C
196 22-06-2010 15:06:02 23.9 C 23 % 1.53 C
197 22-06-2010 15:18:02 24.7 C 21 % 0.93 C
198 22-06-2010 15:30:02 24.9 C 24 % 2.96 C
199 22-06-2010 15:42:01 25 C 22 % 1.83 C
200 22-06-2010 15:54:02 24.2 C 20 % -0.15 C
Sensor: Nr:Datum:Temp:Feuchte:Taupunkt:
Aussen-T/F 201 22-06-2010 16:06:01 23.3 C 23 % 1.03 C
202 22-06-2010 16:18:02 23.4 C 25 % 2.27 C
203 22-06-2010 16:30:02 24.9 C 22 % 1.74 C
204 22-06-2010 16:42:01 26 C 20 % 1.32 C
205 22-06-2010 16:54:03 23.8 C 22 % 0.83 C
206 22-06-2010 17:06:02 23.6 C 25 % 2.44 C
207 22-06-2010 17:18:02 22.8 C 25 % 1.77 C
208 22-06-2010 17:30:03 22.7 C 26 % 2.23 C
209 22-06-2010 17:42:02 23.3 C 25 % 2.19 C
210 22-06-2010 17:54:02 24.1 C 23 % 1.7 C
211 22-06-2010 18:06:01 23.7 C 23 % 1.36 C
212 22-06-2010 18:18:02 23.8 C 29 % 4.71 C
213 22-06-2010 18:30:02 23.3 C 31 % 5.24 C
214 22-06-2010 18:42:02 22.6 C 33 % 5.53 C
215 22-06-2010 18:54:01 22.3 C 35 % 6.11 C
216 22-06-2010 19:06:02 22.7 C 33 % 5.61 C
217 22-06-2010 19:18:01 23.3 C 30 % 4.77 C
218 22-06-2010 19:30:01 23.9 C 28 % 4.3 C
219 22-06-2010 19:42:02 24 C 27 % 3.87 C
220 22-06-2010 19:54:02 23.5 C 31 % 5.41 C
221 22-06-2010 20:06:02 22.8 C 32 % 5.26 C
222 22-06-2010 20:18:01 22.1 C 33 % 5.09 C
223 22-06-2010 20:30:01 21.1 C 36 % 5.46 C
224 22-06-2010 20:42:02 20 C 39 % 5.64 C
225 22-06-2010 20:54:02 19.2 C 41 % 5.64 C
Sensor: Nr:Datum:Temp:Feuchte:Taupunkt:
Aussen-T/F 226 22-06-2010 21:06:02 18.9 C 41 % 5.37 C
227 22-06-2010 21:18:01 18.3 C 41 % 4.83 C
228 22-06-2010 21:30:01 18 C 42 % 4.91 C
229 22-06-2010 21:42:02 17.6 C 43 % 4.89 C
230 22-06-2010 21:54:02 17.3 C 43 % 4.62 C
231 22-06-2010 22:06:02 16.8 C 47 % 5.44 C
232 22-06-2010 22:18:02 16.7 C 48 % 5.65 C
233 22-06-2010 22:30:02 16.3 C 49 % 5.58 C
234 22-06-2010 22:42:02 16 C 50 % 5.59 C
235 22-06-2010 22:55:05 15.8 C 51 % 5.69 C
236 22-06-2010 23:07:05 15.5 C 53 % 5.97 C
237 22-06-2010 23:19:05 15.2 C 53 % 5.69 C
238 22-06-2010 23:31:05 14.9 C 54 % 5.69 C
239 22-06-2010 23:43:05 14.7 C 56 % 6.02 C
240 22-06-2010 23:55:05 14.6 C 57 % 6.19 C
241 23-06-2010 00:07:05 14.3 C 60 % 6.65 C
242 23-06-2010 00:19:06 14 C 61 % 6.61 C
243 23-06-2010 00:31:06 13.8 C 63 % 6.89 C
244 23-06-2010 00:43:06 13.5 C 65 % 7.06 C
245 23-06-2010 00:55:06 13.4 C 66 % 7.19 C
246 23-06-2010 01:07:06 13.2 C 66 % 7 C
247 23-06-2010 01:19:06 12.9 C 69 % 7.36 C
248 23-06-2010 01:31:06 12.7 C 69 % 7.17 C
249 23-06-2010 01:43:06 12.4 C 71 % 7.3 C
250 23-06-2010 01:55:06 12.2 C 72 % 7.31 C
Sensor: Nr:Datum:Temp:Feuchte:Taupunkt:
Aussen-T/F 251 23-06-2010 02:07:06 12.2 C 72 % 7.31 C
252 23-06-2010 02:19:06 11.9 C 73 % 7.22 C
253 23-06-2010 02:31:06 11.8 C 74 % 7.32 C
254 23-06-2010 02:43:06 11.8 C 75 % 7.52 C
255 23-06-2010 02:55:06 11.5 C 75 % 7.23 C
256 23-06-2010 03:07:06 11.2 C 76 % 7.13 C
257 23-06-2010 03:19:06 11.2 C 77 % 7.32 C
258 23-06-2010 03:31:06 11.1 C 76 % 7.04 C
259 23-06-2010 03:43:06 10.9 C 78 % 7.22 C
260 23-06-2010 03:55:06 10.7 C 78 % 7.03 C
261 23-06-2010 04:07:06 10.7 C 78 % 7.03 C
262 23-06-2010 04:19:06 10.5 C 79 % 7.02 C
263 23-06-2010 04:31:06 10.4 C 80 % 7.1 C
264 23-06-2010 04:43:06 10.3 C 80 % 7.01 C
265 23-06-2010 04:55:07 10.2 C 80 % 6.91 C
266 23-06-2010 05:07:07 10.2 C 81 % 7.09 C
267 23-06-2010 05:19:07 10.2 C 81 % 7.09 C
268 23-06-2010 05:31:07 10 C 81 % 6.89 C
269 23-06-2010 05:43:07 9.8 C 83 % 7.05 C
270 23-06-2010 05:55:07 9.8 C 83 % 7.05 C
271 23-06-2010 06:07:07 9.8 C 83 % 7.05 C
272 23-06-2010 06:19:04 9.8 C 83 % 7.05 C
273 23-06-2010 06:31:04 10 C 82 % 7.07 C
274 23-06-2010 06:43:04 10.2 C 82 % 7.27 C
275 23-06-2010 06:55:02 10.5 C 81 % 7.38 C
Sensor: Nr:Datum:Temp:Feuchte:Taupunkt:
Aussen-T/F 276 23-06-2010 07:07:02 10.7 C 81 % 7.58 C
277 23-06-2010 07:19:02 10.5 C 79 % 7.02 C
278 23-06-2010 07:31:02 10.5 C 79 % 7.02 C
279 23-06-2010 07:43:02 10.7 C 79 % 7.21 C
280 23-06-2010 07:55:02 10.8 C 79 % 7.31 C
281 23-06-2010 08:07:01 11 C 78 % 7.32 C
282 23-06-2010 08:19:01 11.5 C 77 % 7.61 C
283 23-06-2010 08:31:02 11.8 C 75 % 7.52 C
284 23-06-2010 08:43:02 12.1 C 73 % 7.41 C
285 23-06-2010 08:55:02 12.5 C 71 % 7.39 C
286 23-06-2010 09:07:02 13 C 69 % 7.45 C
287 23-06-2010 09:19:02 13.4 C 67 % 7.4 C
288 23-06-2010 09:31:02 14.2 C 64 % 7.5 C
289 23-06-2010 09:43:02 14.8 C 62 % 7.6 C
290 23-06-2010 09:55:02 15.4 C 59 % 7.44 C
291 23-06-2010 10:07:02 16.3 C 55 % 7.25 C
292 23-06-2010 10:19:02 17 C 53 % 7.36 C
293 23-06-2010 10:31:02 17.8 C 52 % 7.82 C
294 23-06-2010 10:43:02 18.6 C 48 % 7.39 C
295 23-06-2010 10:55:02 19.1 C 47 % 7.53 C
296 23-06-2010 11:07:02 19.9 C 46 % 7.95 C
297 23-06-2010 11:19:02 20.1 C 44 % 7.48 C
298 23-06-2010 11:31:02 20.6 C 42 % 7.25 C
299 23-06-2010 11:43:02 21.6 C 37 % 6.3 C
300 23-06-2010 11:55:01 23 C 33 % 5.88 C
Sensor: Nr:Datum:Temp:Feuchte:Taupunkt:
Aussen-T/F 301 23-06-2010 12:07:01 24.4 C 31 % 6.19 C
302 23-06-2010 12:19:01 25.4 C 28 % 5.58 C
303 23-06-2010 12:31:01 25.9 C 22 % 2.57 C
304 23-06-2010 12:43:01 26.8 C 21 % 2.67 C
305 23-06-2010 12:55:02 27.3 C 20 % 2.39 C
306 23-06-2010 13:07:02 27 C 22 % 3.49 C
307 23-06-2010 13:19:02 28.1 C 20 % 3.05 C
308 23-06-2010 13:31:02 29.1 C 20 % 3.87 C
309 23-06-2010 13:43:02 27.8 C 20 % 2.8 C
310 23-06-2010 13:55:01 28.2 C 20 % 3.13 C
311 23-06-2010 14:07:02 28.3 C 20 % 3.21 C
312 23-06-2010 14:19:02 27.4 C 20 % 2.47 C
313 23-06-2010 14:31:01 27.3 C 21 % 3.08 C
314 23-06-2010 14:43:01 26.9 C 21 % 2.75 C
315 23-06-2010 14:55:02 28.3 C 20 % 3.21 C
316 23-06-2010 15:07:01 28 C 20 % 2.97 C
317 23-06-2010 15:19:02 28.4 C 21 % 3.99 C
318 23-06-2010 15:31:01 29 C 20 % 3.79 C
319 23-06-2010 15:43:01 28.4 C 20 % 3.29 C
320 23-06-2010 15:55:02 29.4 C 20 % 4.11 C
321 23-06-2010 16:07:02 30 C 20 % 4.61 C
322 23-06-2010 16:19:02 30.6 C 20 % 5.1 C
323 23-06-2010 16:31:02 29.4 C 20 % 4.11 C
324 23-06-2010 16:43:02 30 C 20 % 4.61 C
325 23-06-2010 16:55:02 30.8 C 20 % 5.26 C
Sensor: Nr:Datum:Temp:Feuchte:Taupunkt:
Aussen-T/F 326 23-06-2010 17:07:02 30.7 C 20 % 5.18 C
327 23-06-2010 17:19:01 28.3 C 20 % 3.21 C
328 23-06-2010 17:31:02 28.4 C 20 % 3.29 C
329 23-06-2010 17:43:02 29.6 C 20 % 4.28 C
330 23-06-2010 17:55:02 30.3 C 20 % 4.85 C
331 23-06-2010 18:07:02 30.8 C 20 % 5.26 C
332 23-06-2010 18:19:01 30.6 C 20 % 5.1 C
333 23-06-2010 18:31:02 30.5 C 20 % 5.01 C
334 23-06-2010 18:43:02 29.5 C 20 % 4.2 C
335 23-06-2010 18:55:01 30 C 20 % 4.61 C
336 23-06-2010 19:07:02 29 C 20 % 3.79 C
337 23-06-2010 19:19:01 29.2 C 20 % 3.95 C
338 23-06-2010 19:31:02 29 C 20 % 3.79 C
339 23-06-2010 19:43:02 29.5 C 20 % 4.2 C
340 23-06-2010 19:55:02 29 C 20 % 3.79 C
341 23-06-2010 20:07:02 29 C 20 % 3.79 C
342 23-06-2010 20:19:01 28.5 C 23 % 5.37 C
343 23-06-2010 20:31:01 27.2 C 26 % 6.04 C
344 23-06-2010 20:43:01 26.5 C 27 % 5.99 C
345 23-06-2010 20:55:01 25.7 C 29 % 6.34 C
346 23-06-2010 21:07:02 24.3 C 30 % 5.63 C
347 23-06-2010 21:19:01 23.3 C 33 % 6.14 C
348 23-06-2010 21:31:01 22.5 C 35 % 6.29 C
349 23-06-2010 21:43:01 21.8 C 36 % 6.08 C
350 23-06-2010 21:55:01 21.5 C 36 % 5.81 C
Sensor: Nr:Datum:Temp:Feuchte:Taupunkt:
Aussen-T/F 351 23-06-2010 22:07:02 21.2 C 37 % 5.94 C
352 23-06-2010 22:19:01 20.8 C 39 % 6.35 C
353 23-06-2010 22:31:01 20.5 C 38 % 5.71 C
354 23-06-2010 22:43:01 20.3 C 40 % 6.27 C
355 23-06-2010 22:55:01 19.8 C 41 % 6.18 C
356 23-06-2010 23:07:02 19.5 C 42 % 6.26 C
357 23-06-2010 23:19:02 19.5 C 43 % 6.6 C
358 23-06-2010 23:31:01 19.1 C 44 % 6.57 C
359 23-06-2010 23:43:01 18.8 C 46 % 6.95 C
360 23-06-2010 23:55:01 18.7 C 46 % 6.86 C
361 24-06-2010 00:07:01 18.2 C 48 % 7.02 C
362 24-06-2010 00:19:02 17.8 C 51 % 7.54 C
363 24-06-2010 00:31:02 17.6 C 52 % 7.64 C
364 24-06-2010 00:43:02 17.3 C 54 % 7.91 C
365 24-06-2010 00:55:02 17 C 55 % 7.9 C
366 24-06-2010 01:07:02 16.8 C 56 % 7.98 C
367 24-06-2010 01:19:02 16.5 C 59 % 8.47 C
368 24-06-2010 01:31:02 16 C 60 % 8.25 C
369 24-06-2010 01:43:02 15.5 C 63 % 8.49 C
370 24-06-2010 01:55:02 15.6 C 63 % 8.59 C
371 24-06-2010 02:07:02 15.3 C 64 % 8.54 C
372 24-06-2010 02:19:01 15.2 C 63 % 8.21 C
373 24-06-2010 02:31:02 15.1 C 64 % 8.35 C
374 24-06-2010 02:43:02 14.8 C 66 % 8.52 C
375 24-06-2010 02:56:03 14.5 C 67 % 8.45 C
Sensor: Nr:Datum:Temp:Feuchte:Taupunkt:
Aussen-T/F 376 24-06-2010 03:08:03 14.5 C 68 % 8.67 C
377 24-06-2010 03:20:04 14.3 C 68 % 8.48 C
378 24-06-2010 03:32:02 14.2 C 68 % 8.39 C
379 24-06-2010 03:44:03 14.1 C 68 % 8.29 C
380 24-06-2010 03:56:03 13.8 C 70 % 8.43 C
381 24-06-2010 04:08:02 13.4 C 72 % 8.46 C
382 24-06-2010 04:20:02 13.4 C 72 % 8.46 C
383 24-06-2010 04:32:02 13.2 C 73 % 8.47 C
384 24-06-2010 04:44:02 13.1 C 74 % 8.58 C
385 24-06-2010 04:56:02 12.9 C 75 % 8.58 C
386 24-06-2010 05:08:01 12.8 C 75 % 8.48 C
387 24-06-2010 05:20:01 12.8 C 75 % 8.48 C
388 24-06-2010 05:32:02 12.7 C 76 % 8.58 C
389 24-06-2010 05:44:02 12.4 C 77 % 8.49 C
390 24-06-2010 05:56:02 12.4 C 77 % 8.49 C
391 24-06-2010 06:08:01 12.6 C 77 % 8.68 C
392 24-06-2010 06:20:02 12.6 C 76 % 8.49 C
393 24-06-2010 06:32:02 12.6 C 77 % 8.68 C
394 24-06-2010 06:44:02 12.7 C 77 % 8.78 C
395 24-06-2010 06:56:01 13 C 76 % 8.87 C
396 24-06-2010 07:08:02 13.1 C 74 % 8.58 C
397 24-06-2010 07:20:01 13.3 C 74 % 8.77 C
398 24-06-2010 07:32:01 13.4 C 72 % 8.46 C
399 24-06-2010 07:44:01 13.6 C 71 % 8.45 C
400 24-06-2010 07:56:02 13.7 C 71 % 8.54 C
Sensor: Nr:Datum:Temp:Feuchte:Taupunkt:
Aussen-T/F 401 24-06-2010 08:08:02 14 C 70 % 8.62 C
402 24-06-2010 08:20:01 14.4 C 69 % 8.79 C
403 24-06-2010 08:32:02 14.7 C 69 % 9.08 C
404 24-06-2010 08:44:02 15.2 C 66 % 8.9 C
405 24-06-2010 08:56:02 15.5 C 66 % 9.18 C
406 24-06-2010 09:08:02 16 C 63 % 8.97 C
407 24-06-2010 09:20:01 16.6 C 62 % 9.3 C
408 24-06-2010 09:32:02 17.3 C 57 % 8.71 C
409 24-06-2010 09:44:02 18.4 C 55 % 9.2 C
410 24-06-2010 09:56:02 19 C 51 % 8.64 C
411 24-06-2010 10:08:02 19.6 C 50 % 8.9 C
412 24-06-2010 10:20:01 20.9 C 49 % 9.79 C
413 24-06-2010 10:32:02 21.6 C 46 % 9.49 C
414 24-06-2010 10:44:02 22.4 C 43 % 9.22 C
415 24-06-2010 10:56:01 23 C 40 % 8.68 C
416 24-06-2010 11:08:02 23.6 C 39 % 8.84 C
417 24-06-2010 11:20:02 24.1 C 37 % 8.51 C
418 24-06-2010 11:32:02 24.9 C 33 % 7.53 C
419 24-06-2010 11:44:02 26 C 31 % 7.57 C
420 24-06-2010 11:56:01 26.2 C 28 % 6.26 C
421 24-06-2010 12:08:02 27.5 C 25 % 5.73 C
422 24-06-2010 12:20:02 28.4 C 22 % 4.65 C
423 24-06-2010 12:32:02 29.2 C 20 % 3.95 C
424 24-06-2010 12:44:02 28.4 C 20 % 3.29 C
425 24-06-2010 12:56:01 30.1 C 20 % 4.69 C
Sensor: Nr:Datum:Temp:Feuchte:Taupunkt:
Aussen-T/F 426 24-06-2010 13:08:02 30.1 C 20 % 4.69 C
427 24-06-2010 13:20:02 30.4 C 20 % 4.93 C
428 24-06-2010 13:32:01 30.7 C 20 % 5.18 C
429 24-06-2010 13:44:01 30.4 C 20 % 4.93 C
430 24-06-2010 13:56:02 30.1 C 20 % 4.69 C
431 24-06-2010 14:08:01 30.4 C 20 % 4.93 C
432 24-06-2010 14:20:02 29.6 C 20 % 4.28 C
433 24-06-2010 14:32:01 29.1 C 20 % 3.87 C
434 24-06-2010 14:44:01 29.5 C 20 % 4.2 C
435 24-06-2010 14:56:02 30 C 20 % 4.61 C
436 24-06-2010 15:08:01 30.3 C 20 % 4.85 C
437 24-06-2010 15:20:02 31.2 C 20 % 5.59 C
438 24-06-2010 15:32:01 31 C 20 % 5.42 C
439 24-06-2010 15:44:01 31.3 C 20 % 5.67 C
440 24-06-2010 15:56:01 30.7 C 20 % 5.18 C
441 24-06-2010 16:08:01 30.6 C 20 % 5.1 C
442 24-06-2010 16:20:02 31.3 C 20 % 5.67 C
443 24-06-2010 16:32:01 31.2 C 20 % 5.59 C
444 24-06-2010 16:44:01 32 C 20 % 6.24 C
445 24-06-2010 16:56:01 31.5 C 20 % 5.83 C
446 24-06-2010 17:08:01 32.3 C 20 % 6.49 C
447 24-06-2010 17:20:02 32.4 C 20 % 6.57 C
448 24-06-2010 17:32:01 32.8 C 20 % 6.9 C
449 24-06-2010 17:44:01 32.9 C 20 % 6.98 C
450 24-06-2010 17:56:02 32.8 C 20 % 6.9 C
Sensor: Nr:Datum:Temp:Feuchte:Taupunkt:
Aussen-T/F 451 24-06-2010 18:08:02 32.1 C 20 % 6.32 C
452 24-06-2010 18:20:03 32.4 C 20 % 6.57 C
453 24-06-2010 18:32:02 32.8 C 20 % 6.9 C
454 24-06-2010 18:44:02 33 C 20 % 7.06 C
455 24-06-2010 18:56:02 32.9 C 20 % 6.98 C
456 24-06-2010 19:08:02 32.2 C 20 % 6.41 C
457 24-06-2010 19:20:03 31.8 C 20 % 6.08 C
458 24-06-2010 19:32:02 31.4 C 20 % 5.75 C
459 24-06-2010 19:44:02 31.4 C 20 % 5.75 C
460 24-06-2010 19:56:03 31.8 C 20 % 6.08 C
461 24-06-2010 20:08:02 31.5 C 20 % 5.83 C
462 24-06-2010 20:20:02 31.2 C 20 % 5.59 C
463 24-06-2010 20:32:02 30.5 C 22 % 6.39 C
464 24-06-2010 20:44:02 29.4 C 25 % 7.33 C
465 24-06-2010 20:56:02 28.1 C 26 % 6.8 C
466 24-06-2010 21:08:02 26.9 C 27 % 6.33 C
467 24-06-2010 21:20:02 25.8 C 30 % 6.92 C
468 24-06-2010 21:32:02 24.8 C 31 % 6.54 C
469 24-06-2010 21:44:02 24.5 C 32 % 6.74 C
470 24-06-2010 21:56:02 24.2 C 32 % 6.48 C
471 24-06-2010 22:08:02 23.7 C 35 % 7.34 C
472 24-06-2010 22:21:03 23.4 C 35 % 7.08 C
473 24-06-2010 22:33:03 22.9 C 37 % 7.45 C
474 24-06-2010 22:45:03 22.6 C 37 % 7.18 C
475 24-06-2010 22:57:03 22.2 C 38 % 7.22 C
Sensor: Nr:Datum:Temp:Feuchte:Taupunkt:
Aussen-T/F 476 24-06-2010 23:09:03 22 C 38 % 7.04 C
477 24-06-2010 23:21:03 21.8 C 40 % 7.61 C
478 24-06-2010 23:33:03 21.5 C 41 % 7.7 C
479 24-06-2010 23:45:04 20.9 C 43 % 7.86 C
480 24-06-2010 23:57:04 20.7 C 44 % 8.02 C
481 25-06-2010 00:09:04 20.6 C 44 % 7.93 C
482 25-06-2010 00:21:04 20.4 C 45 % 8.08 C
483 25-06-2010 00:33:04 20 C 46 % 8.04 C
484 25-06-2010 00:45:04 19.7 C 48 % 8.39 C
485 25-06-2010 00:57:04 19.5 C 49 % 8.51 C
486 25-06-2010 01:09:04 19.1 C 50 % 8.44 C
487 25-06-2010 01:21:04 19.1 C 50 % 8.44 C
488 25-06-2010 01:33:04 18.9 C 52 % 8.84 C
489 25-06-2010 01:45:04 18.6 C 53 % 8.84 C
490 25-06-2010 01:57:04 18.6 C 54 % 9.12 C
491 25-06-2010 02:09:04 18.3 C 56 % 9.38 C
492 25-06-2010 02:21:04 18.7 C 55 % 9.48 C
493 25-06-2010 02:33:04 18.7 C 55 % 9.48 C
494 25-06-2010 02:45:04 18.3 C 56 % 9.38 C
495 25-06-2010 02:57:04 18 C 57 % 9.36 C
496 25-06-2010 03:09:04 17.4 C 60 % 9.56 C
497 25-06-2010 03:21:04 17.2 C 62 % 9.86 C
498 25-06-2010 03:33:04 17 C 63 % 9.91 C
499 25-06-2010 03:45:04 16.9 C 64 % 10.05 C
500 25-06-2010 03:57:05 16.8 C 65 % 10.19 C
Sensor: Nr:Datum:Temp:Feuchte:Taupunkt:
Aussen-T/F 501 25-06-2010 04:09:05 17 C 64 % 10.15 C
502 25-06-2010 04:21:05 16.7 C 65 % 10.09 C
503 25-06-2010 04:33:05 16.6 C 66 % 10.23 C
504 25-06-2010 04:45:05 16.6 C 66 % 10.23 C
505 25-06-2010 04:57:05 16.7 C 66 % 10.32 C
506 25-06-2010 05:09:05 16.5 C 66 % 10.13 C
507 25-06-2010 05:21:05 16.2 C 68 % 10.29 C
508 25-06-2010 05:33:05 16 C 68 % 10.1 C
509 25-06-2010 05:45:05 16 C 69 % 10.32 C
510 25-06-2010 05:57:05 16.1 C 69 % 10.42 C
511 25-06-2010 06:09:05 16.2 C 69 % 10.51 C
512 25-06-2010 06:21:05 16.1 C 69 % 10.42 C
513 25-06-2010 06:33:05 16.3 C 69 % 10.61 C
514 25-06-2010 06:45:05 16.2 C 69 % 10.51 C
515 25-06-2010 06:57:05 16.3 C 69 % 10.61 C
516 25-06-2010 07:09:03 16.6 C 69 % 10.89 C
517 25-06-2010 07:21:03 16.7 C 68 % 10.77 C
518 25-06-2010 07:33:04 17.1 C 66 % 10.7 C
519 25-06-2010 07:45:02 17.5 C 65 % 10.85 C
520 25-06-2010 07:57:02 17.7 C 64 % 10.81 C
521 25-06-2010 08:09:02 18.1 C 63 % 10.95 C
522 25-06-2010 08:21:02 19 C 59 % 10.81 C
523 25-06-2010 08:33:02 19.4 C 56 % 10.4 C
524 25-06-2010 08:45:02 19.4 C 55 % 10.13 C
525 25-06-2010 08:57:02 19.3 C 55 % 10.04 C
Sensor: Nr:Datum:Temp:Feuchte:Taupunkt:
Aussen-T/F 526 25-06-2010 09:09:03 19.4 C 54 % 9.86 C
527 25-06-2010 09:21:02 20 C 52 % 9.85 C
528 25-06-2010 09:33:02 20.4 C 52 % 10.22 C
529 25-06-2010 09:45:01 20.6 C 51 % 10.12 C
530 25-06-2010 09:57:01 21.5 C 50 % 10.65 C
531 25-06-2010 10:09:02 21.8 C 47 % 9.99 C
532 25-06-2010 10:21:01 22.4 C 45 % 9.89 C
533 25-06-2010 10:33:02 22.7 C 43 % 9.49 C
534 25-06-2010 10:45:01 22.9 C 42 % 9.32 C
535 25-06-2010 10:57:01 23.1 C 41 % 9.14 C
536 25-06-2010 11:09:02 23.5 C 39 % 8.76 C
537 25-06-2010 11:21:01 23.6 C 39 % 8.84 C
538 25-06-2010 11:33:02 24 C 38 % 8.82 C
539 25-06-2010 11:45:01 24.2 C 37 % 8.6 C
540 25-06-2010 11:57:01 26.3 C 33 % 8.75 C
541 25-06-2010 12:09:02 26.2 C 32 % 8.21 C
542 25-06-2010 12:21:02 27.4 C 31 % 8.78 C
543 25-06-2010 12:33:01 27.9 C 28 % 7.72 C
544 25-06-2010 12:45:02 28.9 C 28 % 8.57 C
545 25-06-2010 12:57:02 28.2 C 27 % 7.44 C
546 25-06-2010 13:09:01 29.1 C 26 % 7.65 C
547 25-06-2010 13:21:02 29.1 C 25 % 7.08 C
548 25-06-2010 13:33:01 29.3 C 25 % 7.25 C
549 25-06-2010 13:45:03 29 C 25 % 6.99 C
550 25-06-2010 13:57:03 28.7 C 25 % 6.74 C
Sensor: Nr:Datum:Temp:Feuchte:Taupunkt:
Aussen-T/F 551 25-06-2010 14:09:02 29.4 C 24 % 6.73 C
552 25-06-2010 14:21:02 28.6 C 25 % 6.66 C
553 25-06-2010 14:33:03 28.4 C 25 % 6.49 C
554 25-06-2010 14:45:02 28.9 C 25 % 6.91 C
555 25-06-2010 14:57:03 28.9 C 23 % 5.7 C
556 25-06-2010 15:09:01 28.9 C 23 % 5.7 C
557 25-06-2010 15:21:02 29.4 C 22 % 5.48 C
558 25-06-2010 15:33:02 29.2 C 24 % 6.57 C
559 25-06-2010 15:45:01 30.2 C 20 % 4.77 C
560 25-06-2010 15:57:01 30.3 C 20 % 4.85 C
561 25-06-2010 16:09:02 29.6 C 20 % 4.28 C
562 25-06-2010 16:21:01 30.3 C 20 % 4.85 C
563 25-06-2010 16:33:01 30.7 C 20 % 5.18 C
564 25-06-2010 16:45:02 30.4 C 20 % 4.93 C
565 25-06-2010 16:57:02 30.2 C 20 % 4.77 C
566 25-06-2010 17:09:02 30.8 C 20 % 5.26 C
567 25-06-2010 17:21:01 30.8 C 20 % 5.26 C
568 25-06-2010 17:33:02 31.2 C 20 % 5.59 C
569 25-06-2010 17:45:02 30.6 C 20 % 5.1 C
570 25-06-2010 17:57:02 30.1 C 20 % 4.69 C
571 25-06-2010 18:09:02 30.4 C 20 % 4.93 C
572 25-06-2010 18:21:01 30.8 C 20 % 5.26 C
573 25-06-2010 18:33:02 31.1 C 20 % 5.51 C
574 25-06-2010 18:45:02 30.7 C 20 % 5.18 C
575 25-06-2010 18:57:02 30.7 C 20 % 5.18 C
Sensor: Nr:Datum:Temp:Feuchte:Taupunkt:
Aussen-T/F 576 25-06-2010 19:09:02 30.7 C 20 % 5.18 C
577 25-06-2010 19:21:02 30.7 C 20 % 5.18 C
578 25-06-2010 19:33:02 30 C 20 % 4.61 C
579 25-06-2010 19:45:02 29.9 C 20 % 4.52 C
580 25-06-2010 19:57:02 29.7 C 21 % 5.06 C
581 25-06-2010 20:09:03 29.7 C 21 % 5.06 C
582 25-06-2010 20:21:02 28.5 C 20 % 3.38 C
583 25-06-2010 20:33:03 28 C 21 % 3.66 C
584 25-06-2010 20:45:02 27.8 C 23 % 4.78 C
585 25-06-2010 20:57:02 27.2 C 24 % 4.89 C
586 25-06-2010 21:09:02 26.3 C 26 % 5.28 C
587 25-06-2010 21:21:02 25.8 C 30 % 6.92 C
588 25-06-2010 21:33:02 24.9 C 31 % 6.62 C
589 25-06-2010 21:45:02 24.1 C 33 % 6.84 C
590 25-06-2010 21:57:02 23.8 C 34 % 7.01 C
591 25-06-2010 22:09:02 23.3 C 35 % 6.99 C
592 25-06-2010 22:21:01 23 C 36 % 7.14 C
593 25-06-2010 22:33:01 22.7 C 37 % 7.27 C
594 25-06-2010 22:45:01 22.2 C 38 % 7.22 C
595 25-06-2010 22:57:01 22 C 39 % 7.42 C
596 25-06-2010 23:09:01 21.5 C 40 % 7.34 C
597 25-06-2010 23:21:01 21.4 C 41 % 7.62 C
598 25-06-2010 23:33:01 21 C 41 % 7.26 C
599 25-06-2010 23:45:01 20.8 C 45 % 8.44 C
600 25-06-2010 23:57:01 20.5 C 45 % 8.17 C
Sensor: Nr:Datum:Temp:Feuchte:Taupunkt:
Aussen-T/F 601 26-06-2010 00:09:01 20.3 C 46 % 8.31 C
602 26-06-2010 00:21:01 20.2 C 46 % 8.22 C
603 26-06-2010 00:33:02 19.7 C 48 % 8.39 C
604 26-06-2010 00:45:02 19.3 C 50 % 8.63 C
605 26-06-2010 00:57:02 18.9 C 51 % 8.55 C
606 26-06-2010 01:09:02 18.7 C 52 % 8.65 C
607 26-06-2010 01:21:02 18.9 C 52 % 8.84 C
608 26-06-2010 01:33:02 18.7 C 52 % 8.65 C
609 26-06-2010 01:45:02 18.5 C 52 % 8.47 C
610 26-06-2010 01:57:02 18.2 C 53 % 8.47 C
611 26-06-2010 02:09:02 17.9 C 56 % 9.01 C
612 26-06-2010 02:21:02 17.7 C 56 % 8.82 C
613 26-06-2010 02:33:02 17.4 C 58 % 9.06 C
614 26-06-2010 02:45:02 17.1 C 59 % 9.03 C
615 26-06-2010 02:57:02 17 C 59 % 8.94 C
616 26-06-2010 03:09:02 16.9 C 60 % 9.09 C
617 26-06-2010 03:21:02 16.5 C 61 % 8.96 C
618 26-06-2010 03:33:02 16.5 C 62 % 9.2 C
619 26-06-2010 03:45:02 16.3 C 63 % 9.25 C
620 26-06-2010 03:57:02 16.1 C 63 % 9.06 C
621 26-06-2010 04:09:02 15.9 C 65 % 9.34 C
622 26-06-2010 04:21:02 15.6 C 66 % 9.28 C
623 26-06-2010 04:33:03 15.5 C 67 % 9.41 C
624 26-06-2010 04:45:03 15.3 C 68 % 9.43 C
625 26-06-2010 04:57:03 15.2 C 68 % 9.34 C
Sensor: Nr:Datum:Temp:Feuchte:Taupunkt:
Aussen-T/F 626 26-06-2010 05:09:03 15 C 69 % 9.36 C
627 26-06-2010 05:21:03 14.8 C 70 % 9.39 C
628 26-06-2010 05:33:03 14.8 C 70 % 9.39 C
629 26-06-2010 05:45:03 14.7 C 72 % 9.71 C
630 26-06-2010 05:57:03 14.5 C 72 % 9.52 C
631 26-06-2010 06:09:03 14.4 C 74 % 9.83 C
632 26-06-2010 06:21:03 14.5 C 74 % 9.93 C
633 26-06-2010 06:33:03 14.7 C 73 % 9.92 C
634 26-06-2010 06:45:03 14.9 C 73 % 10.11 C
635 26-06-2010 06:57:03 15.2 C 71 % 9.98 C
636 26-06-2010 07:09:03 15.2 C 71 % 9.98 C
637 26-06-2010 07:21:03 15.3 C 71 % 10.08 C
638 26-06-2010 07:33:03 15.4 C 71 % 10.17 C
639 26-06-2010 07:45:03 15.4 C 71 % 10.17 C
640 26-06-2010 07:57:03 15.6 C 71 % 10.37 C
641 26-06-2010 08:09:03 15.8 C 70 % 10.34 C
642 26-06-2010 08:21:03 16.3 C 69 % 10.61 C
643 26-06-2010 08:33:03 16.8 C 68 % 10.87 C
644 26-06-2010 08:45:01 17.3 C 64 % 10.43 C
645 26-06-2010 08:57:01 17.8 C 62 % 10.43 C
646 26-06-2010 09:09:02 18.4 C 61 % 10.75 C
647 26-06-2010 09:21:01 18.9 C 60 % 10.97 C
648 26-06-2010 09:33:02 19.4 C 58 % 10.93 C
649 26-06-2010 09:45:01 20.2 C 54 % 10.6 C
650 26-06-2010 09:57:01 20.9 C 52 % 10.68 C
Sensor: Nr:Datum:Temp:Feuchte:Taupunkt:
Aussen-T/F 651 26-06-2010 10:09:02 21.8 C 49 % 10.62 C
652 26-06-2010 10:21:01 22.4 C 45 % 9.89 C
653 26-06-2010 10:33:01 23 C 44 % 10.1 C
654 26-06-2010 10:45:01 23.6 C 41 % 9.59 C
655 26-06-2010 10:57:01 24.3 C 37 % 8.69 C
656 26-06-2010 11:09:01 24.6 C 35 % 8.13 C
657 26-06-2010 11:21:02 25.8 C 32 % 7.87 C
658 26-06-2010 11:33:01 26.4 C 30 % 7.44 C
659 26-06-2010 11:45:01 26.8 C 26 % 5.7 C
660 26-06-2010 11:57:01 27.3 C 24 % 4.98 C
661 26-06-2010 12:09:01 27.8 C 25 % 5.98 C
662 26-06-2010 12:21:02 28.4 C 23 % 5.28 C
663 26-06-2010 12:33:01 29.6 C 22 % 5.64 C
664 26-06-2010 12:45:02 30.3 C 20 % 4.85 C
665 26-06-2010 12:57:02 30.9 C 20 % 5.34 C
666 26-06-2010 13:09:01 31.3 C 20 % 5.67 C
667 26-06-2010 13:21:02 30.5 C 20 % 5.01 C
668 26-06-2010 13:33:01 31 C 20 % 5.42 C
669 26-06-2010 13:45:02 31.8 C 20 % 6.08 C
670 26-06-2010 13:57:02 30.8 C 20 % 5.26 C
671 26-06-2010 14:09:02 30.6 C 20 % 5.1 C
672 26-06-2010 14:21:01 28.8 C 20 % 3.62 C
673 26-06-2010 14:33:01 29.7 C 20 % 4.36 C
674 26-06-2010 14:45:01 28.9 C 20 % 3.7 C
675 26-06-2010 14:57:01 29.6 C 20 % 4.28 C
Sensor: Nr:Datum:Temp:Feuchte:Taupunkt:
Aussen-T/F 676 26-06-2010 15:09:02 29.9 C 20 % 4.52 C
677 26-06-2010 15:21:01 30 C 20 % 4.61 C
678 26-06-2010 15:33:01 30 C 20 % 4.61 C
679 26-06-2010 15:45:01 31.5 C 20 % 5.83 C
680 26-06-2010 15:57:01 31.9 C 20 % 6.16 C
681 26-06-2010 16:09:01 32.1 C 20 % 6.32 C
682 26-06-2010 16:21:02 31.3 C 20 % 5.67 C
683 26-06-2010 16:33:01 31.4 C 20 % 5.75 C
684 26-06-2010 16:45:02 31.9 C 20 % 6.16 C
685 26-06-2010 16:57:02 31.5 C 20 % 5.83 C
686 26-06-2010 17:09:01 32.4 C 20 % 6.57 C
687 26-06-2010 17:21:02 32.5 C 20 % 6.65 C
688 26-06-2010 17:33:01 32.9 C 20 % 6.98 C
689 26-06-2010 17:45:02 33.1 C 20 % 7.14 C
690 26-06-2010 17:57:02 33.3 C 20 % 7.3 C
691 26-06-2010 18:09:01 33.1 C 20 % 7.14 C
692 26-06-2010 18:21:01 32.4 C 20 % 6.57 C
693 26-06-2010 18:33:03 31.4 C 20 % 5.75 C
694 26-06-2010 18:45:02 31.9 C 20 % 6.16 C
695 26-06-2010 18:57:02 31.4 C 20 % 5.75 C
696 26-06-2010 19:09:01 31.4 C 20 % 5.75 C
697 26-06-2010 19:21:01 31.3 C 20 % 5.67 C
698 26-06-2010 19:33:02 31.3 C 20 % 5.67 C
699 26-06-2010 19:45:01 31.2 C 20 % 5.59 C
700 26-06-2010 19:57:01 31 C 20 % 5.42 C
Sensor: Nr:Datum:Temp:Feuchte:Taupunkt:
Aussen-T/F 701 26-06-2010 20:09:02 30.7 C 20 % 5.18 C
702 26-06-2010 20:21:01 30.4 C 20 % 4.93 C
703 26-06-2010 20:33:02 30.4 C 20 % 4.93 C
704 26-06-2010 20:45:01 30.1 C 21 % 5.39 C
705 26-06-2010 20:57:01 29.1 C 25 % 7.08 C
706 26-06-2010 21:09:02 27.8 C 27 % 7.1 C
707 26-06-2010 21:21:01 26.4 C 28 % 6.43 C
708 26-06-2010 21:33:01 25.8 C 29 % 6.43 C
709 26-06-2010 21:45:01 25 C 30 % 6.23 C
710 26-06-2010 21:57:01 24.3 C 33 % 7.01 C
711 26-06-2010 22:09:02 24 C 31 % 5.84 C
712 26-06-2010 22:21:01 23.4 C 36 % 7.49 C
713 26-06-2010 22:33:02 23.2 C 36 % 7.31 C
714 26-06-2010 22:45:01 22.9 C 39 % 8.22 C
715 26-06-2010 22:57:01 22.3 C 40 % 8.06 C
716 26-06-2010 23:09:02 22.2 C 41 % 8.33 C
717 26-06-2010 23:21:01 21.8 C 42 % 8.33 C
718 26-06-2010 23:33:01 21.4 C 41 % 7.62 C
719 26-06-2010 23:45:01 21.4 C 42 % 7.97 C
720 26-06-2010 23:57:01 21 C 41 % 7.26 C
721 27-06-2010 00:09:01 20.7 C 43 % 7.68 C
722 27-06-2010 00:21:01 20.5 C 45 % 8.17 C
723 27-06-2010 00:33:02 20 C 46 % 8.04 C
724 27-06-2010 00:45:01 19.7 C 47 % 8.08 C
725 27-06-2010 00:57:01 19.5 C 48 % 8.21 C
Sensor: Nr:Datum:Temp:Feuchte:Taupunkt:
Aussen-T/F 726 27-06-2010 01:09:02 19.4 C 49 % 8.42 C
727 27-06-2010 01:21:01 18.9 C 51 % 8.55 C
728 27-06-2010 01:33:01 18.7 C 52 % 8.65 C
729 27-06-2010 01:45:01 18.5 C 53 % 8.75 C
730 27-06-2010 01:57:01 18.3 C 54 % 8.84 C
731 27-06-2010 02:09:01 18.1 C 54 % 8.65 C
732 27-06-2010 02:21:01 17.7 C 57 % 9.08 C
733 27-06-2010 02:33:01 17.5 C 58 % 9.15 C
734 27-06-2010 02:46:10 17.3 C 58 % 8.97 C
735 27-06-2010 02:58:10 17.2 C 60 % 9.37 C
736 27-06-2010 03:10:11 17 C 60 % 9.19 C
737 27-06-2010 03:22:11 16.9 C 61 % 9.34 C
738 27-06-2010 03:34:02 16.7 C 63 % 9.63 C
739 27-06-2010 03:46:02 16.4 C 63 % 9.35 C
740 27-06-2010 03:58:02 16.2 C 65 % 9.62 C
741 27-06-2010 04:10:02 16.1 C 64 % 9.29 C
742 27-06-2010 04:22:03 16 C 66 % 9.66 C
743 27-06-2010 04:34:03 15.8 C 66 % 9.47 C
744 27-06-2010 04:46:01 15.5 C 67 % 9.41 C
745 27-06-2010 04:58:02 15.4 C 68 % 9.53 C
746 27-06-2010 05:10:01 15.2 C 68 % 9.34 C
747 27-06-2010 05:22:01 15.1 C 68 % 9.24 C
748 27-06-2010 05:34:01 15.1 C 69 % 9.46 C
749 27-06-2010 05:46:02 14.9 C 71 % 9.69 C
750 27-06-2010 05:58:02 14.9 C 71 % 9.69 C
Sensor: Nr:Datum:Temp:Feuchte:Taupunkt:
Aussen-T/F 751 27-06-2010 06:10:02 14.9 C 71 % 9.69 C
752 27-06-2010 06:22:01 15 C 71 % 9.79 C
753 27-06-2010 06:34:02 15 C 71 % 9.79 C
754 27-06-2010 06:46:02 14.9 C 73 % 10.11 C
755 27-06-2010 06:58:02 14.9 C 74 % 10.31 C
756 27-06-2010 07:10:02 14.8 C 74 % 10.22 C
757 27-06-2010 07:22:01 15.1 C 72 % 10.09 C
758 27-06-2010 07:34:02 15.4 C 72 % 10.38 C
759 27-06-2010 07:46:01 15.6 C 70 % 10.15 C
760 27-06-2010 07:58:01 15.9 C 69 % 10.23 C
761 27-06-2010 08:10:02 16.2 C 68 % 10.29 C
762 27-06-2010 08:22:01 16.6 C 66 % 10.23 C
763 27-06-2010 08:34:01 16.9 C 64 % 10.05 C
764 27-06-2010 08:46:01 17.5 C 62 % 10.15 C
765 27-06-2010 08:58:01 18 C 59 % 9.88 C
766 27-06-2010 09:10:02 18.6 C 58 % 10.18 C
767 27-06-2010 09:22:02 19.5 C 56 % 10.5 C
768 27-06-2010 09:34:01 20.5 C 55 % 11.16 C
769 27-06-2010 09:46:02 21.3 C 50 % 10.46 C
770 27-06-2010 09:58:02 21.8 C 48 % 10.31 C
771 27-06-2010 10:10:01 22.5 C 46 % 10.31 C
772 27-06-2010 10:22:02 23.7 C 44 % 10.73 C
773 27-06-2010 10:34:01 24.4 C 40 % 9.93 C
774 27-06-2010 10:46:02 24.8 C 37 % 9.13 C
775 27-06-2010 10:58:02 25.4 C 36 % 9.25 C
Sensor: Nr:Datum:Temp:Feuchte:Taupunkt:
Aussen-T/F 776 27-06-2010 11:10:02 25.6 C 34 % 8.58 C
777 27-06-2010 11:22:02 26.1 C 32 % 8.13 C
778 27-06-2010 11:34:01 27.3 C 31 % 8.7 C
779 27-06-2010 11:46:02 28 C 28 % 7.8 C
780 27-06-2010 11:58:02 29.1 C 25 % 7.08 C
781 27-06-2010 12:10:01 29.8 C 22 % 5.81 C
782 27-06-2010 12:22:01 29.7 C 21 % 5.06 C
783 27-06-2010 12:34:01 30.7 C 20 % 5.18 C
784 27-06-2010 12:46:02 31.3 C 20 % 5.67 C
785 27-06-2010 12:58:02 31.4 C 20 % 5.75 C
786 27-06-2010 13:10:02 31.4 C 20 % 5.75 C
787 27-06-2010 13:22:02 32 C 20 % 6.24 C
788 27-06-2010 13:34:03 32.4 C 20 % 6.57 C
789 27-06-2010 13:46:02 32.2 C 20 % 6.41 C
790 27-06-2010 13:58:02 31.5 C 20 % 5.83 C
791 27-06-2010 14:10:02 31.4 C 20 % 5.75 C
792 27-06-2010 14:22:01 31.3 C 20 % 5.67 C
793 27-06-2010 14:34:02 31.3 C 20 % 5.67 C
794 27-06-2010 14:46:02 31.3 C 20 % 5.67 C
795 27-06-2010 14:58:02 31.4 C 20 % 5.75 C
796 27-06-2010 15:10:02 32 C 20 % 6.24 C
797 27-06-2010 15:22:01 32.4 C 20 % 6.57 C
798 27-06-2010 15:34:02 32.5 C 20 % 6.65 C
799 27-06-2010 15:46:02 32.7 C 20 % 6.81 C
800 27-06-2010 15:58:02 32.6 C 20 % 6.73 C
Sensor: Nr:Datum:Temp:Feuchte:Taupunkt:
Aussen-T/F 801 27-06-2010 16:10:02 33 C 20 % 7.06 C
802 27-06-2010 16:22:02 32.8 C 20 % 6.9 C
803 27-06-2010 16:34:02 33.1 C 20 % 7.14 C
804 27-06-2010 16:46:02 33.3 C 20 % 7.3 C
805 27-06-2010 16:58:02 33.3 C 20 % 7.3 C
806 27-06-2010 17:10:02 33.5 C 20 % 7.47 C
807 27-06-2010 17:22:02 32.8 C 20 % 6.9 C
808 27-06-2010 17:34:02 33.4 C 20 % 7.39 C
809 27-06-2010 17:46:02 33.1 C 20 % 7.14 C
810 27-06-2010 17:58:02 33.5 C 20 % 7.47 C
811 27-06-2010 18:10:02 33.6 C 20 % 7.55 C
812 27-06-2010 18:22:02 33.8 C 20 % 7.71 C
813 27-06-2010 18:34:02 33.6 C 20 % 7.55 C
814 27-06-2010 18:46:02 33.7 C 20 % 7.63 C
815 27-06-2010 18:58:02 33.9 C 20 % 7.8 C
816 27-06-2010 19:10:02 33.8 C 20 % 7.71 C
817 27-06-2010 19:22:02 33.5 C 20 % 7.47 C
818 27-06-2010 19:34:02 33.4 C 20 % 7.39 C
819 27-06-2010 19:46:02 33.3 C 20 % 7.3 C
820 27-06-2010 19:58:02 32.9 C 20 % 6.98 C
821 27-06-2010 20:10:02 32.6 C 20 % 6.73 C
822 27-06-2010 20:22:02 31.9 C 20 % 6.16 C
823 27-06-2010 20:34:02 31.5 C 20 % 5.83 C
824 27-06-2010 20:46:02 31 C 20 % 5.42 C
825 27-06-2010 20:58:02 30.3 C 21 % 5.55 C
Sensor: Nr:Datum:Temp:Feuchte:Taupunkt:
Aussen-T/F 826 27-06-2010 21:10:02 29.2 C 24 % 6.57 C
827 27-06-2010 21:22:02 27.6 C 27 % 6.93 C
828 27-06-2010 21:34:02 26.6 C 28 % 6.61 C
829 27-06-2010 21:46:01 25.9 C 31 % 7.49 C
830 27-06-2010 21:58:01 25.3 C 31 % 6.97 C
831 27-06-2010 22:10:01 24.8 C 32 % 7 C
832 27-06-2010 22:22:01 24.3 C 33 % 7.01 C
833 27-06-2010 22:34:02 24.3 C 34 % 7.45 C
834 27-06-2010 22:46:02 23.9 C 35 % 7.52 C
835 27-06-2010 22:58:02 23.7 C 36 % 7.75 C
836 27-06-2010 23:11:02 23.5 C 38 % 8.37 C
837 27-06-2010 23:23:02 23 C 37 % 7.54 C
838 27-06-2010 23:35:02 22.5 C 40 % 8.24 C
839 27-06-2010 23:47:02 22.3 C 41 % 8.42 C
840 27-06-2010 23:59:02 22 C 41 % 8.15 C

Legende:
   Min
   Max


Maximal/Minimal-Werte vom 21.06.2010 - 27.06.2010

Sensor Min Max Avg
Temp
(Aussen-T/F)
8.5 °C
21-06-2010  06:05:04
33.9 °C
27-06-2010  18:58:02
20.76 °C
Feuchte
(Aussen-T/F)
20 %
22-06-2010  15:54:02
84 %
21-06-2010  06:41:04
44.8 %
Taupunkt
(Aussen-T/F)
-1.5 C
21-06-2010  17:05:02
11.16 C
27-06-2010  09:34:01
6.45 C

Die Daten stammen von einer Davis Vantage Pro 2 Wetter-Station und werden unter Linux mit der Software wview2wettercgi und aufbereitet. Alle Angaben erfolgen ohne Gewähr für ihre Vollständigkeit oder Richtigkeit.
Kontakt: Rainer Krienke krienke@uni-koblenz.de . Meine Webseiten an der Uni Koblenz oder privat.
Version: $Revision: 0.78 $